createdAt,value
2019-05-29T00:00:05.784Z,8.37
2019-05-29T00:01:08.944Z,8.24
2019-05-29T00:02:05.991Z,8.38
2019-05-29T00:03:06.131Z,8.34
2019-05-29T00:04:04.605Z,8.38
2019-05-29T00:05:04.594Z,8.34
2019-05-29T00:06:04.593Z,8.32
2019-05-29T00:07:04.584Z,8.28
2019-05-29T00:08:04.573Z,8.20
2019-05-29T00:09:04.578Z,8.14
2019-05-29T00:10:04.551Z,8.12
2019-05-29T00:11:04.538Z,8.14
2019-05-29T00:12:04.566Z,8.10
2019-05-29T00:13:04.506Z,8.12
2019-05-29T00:14:18.726Z,8.02
2019-05-29T00:15:06.189Z,8.02
2019-05-29T00:16:04.486Z,8.01
2019-05-29T00:17:04.472Z,8.01
2019-05-29T00:18:04.450Z,8.05
2019-05-29T00:19:04.440Z,7.91
2019-05-29T00:20:04.444Z,7.92
2019-05-29T00:21:04.451Z,7.98
2019-05-29T00:22:04.417Z,8.04
2019-05-29T00:23:04.412Z,7.99
2019-05-29T00:24:04.386Z,8.02
2019-05-29T00:25:04.387Z,8.06
2019-05-29T00:26:04.362Z,8.10
2019-05-29T00:27:05.391Z,8.10
2019-05-29T00:28:04.347Z,8.16
2019-05-29T00:29:05.551Z,8.13
2019-05-29T00:30:04.326Z,8.16
2019-05-29T00:31:05.686Z,8.20
2019-05-29T00:32:04.324Z,8.20
2019-05-29T00:33:04.298Z,8.19
2019-05-29T00:34:04.282Z,8.29
2019-05-29T00:35:04.281Z,8.31
2019-05-29T00:36:04.270Z,8.32
2019-05-29T00:37:04.272Z,8.31
2019-05-29T00:38:04.250Z,8.34
2019-05-29T00:39:04.274Z,8.42
2019-05-29T00:40:04.225Z,8.44
2019-05-29T00:41:04.216Z,8.38
2019-05-29T00:42:04.210Z,8.53
2019-05-29T00:43:04.198Z,8.42
2019-05-29T00:44:04.189Z,8.53
2019-05-29T00:45:04.176Z,8.55
2019-05-29T00:46:04.154Z,8.62
2019-05-29T00:47:04.173Z,8.65
2019-05-29T00:48:04.156Z,8.62
2019-05-29T00:49:04.115Z,8.65
2019-05-29T00:50:04.102Z,8.78
2019-05-29T00:51:04.099Z,8.81
2019-05-29T00:52:04.135Z,8.78
2019-05-29T00:53:04.077Z,8.88
2019-05-29T00:54:04.082Z,8.88
2019-05-29T00:55:04.077Z,8.92
2019-05-29T00:56:04.050Z,8.86
2019-05-29T00:57:04.061Z,8.89
2019-05-29T00:58:04.033Z,8.93
2019-05-29T00:59:04.007Z,8.95
2019-05-29T01:00:03.999Z,8.85
2019-05-29T01:01:03.985Z,8.93
2019-05-29T01:02:03.998Z,8.92
2019-05-29T01:03:03.964Z,8.89
2019-05-29T01:04:03.953Z,8.93
2019-05-29T01:05:03.953Z,8.98
2019-05-29T01:06:03.927Z,8.98
2019-05-29T01:07:03.990Z,9.04
2019-05-29T01:08:03.911Z,9.03
2019-05-29T01:09:03.949Z,9.09
2019-05-29T01:10:03.895Z,9.03
2019-05-29T01:11:03.881Z,9.09
2019-05-29T01:12:03.870Z,9.08
2019-05-29T01:13:03.877Z,9.09
2019-05-29T01:14:03.861Z,9.08
2019-05-29T01:15:03.831Z,9.04
2019-05-29T01:16:03.822Z,9.06
2019-05-29T01:17:03.820Z,9.03
2019-05-29T01:18:03.822Z,9.06
2019-05-29T01:19:03.791Z,8.96
2019-05-29T01:20:03.791Z,9.01
2019-05-29T01:21:03.771Z,9.06
2019-05-29T01:22:03.847Z,9.01
2019-05-29T01:23:03.760Z,8.96
2019-05-29T01:24:03.737Z,8.96
2019-05-29T01:25:03.746Z,8.98
2019-05-29T01:26:03.780Z,8.95
2019-05-29T01:27:03.780Z,8.98
2019-05-29T01:28:03.706Z,8.90
2019-05-29T01:29:03.683Z,8.95
2019-05-29T01:30:03.686Z,8.80
2019-05-29T01:31:03.677Z,8.80
2019-05-29T01:32:03.684Z,8.80
2019-05-29T01:33:03.654Z,8.86
2019-05-29T01:34:03.632Z,8.78
2019-05-29T01:35:03.642Z,8.74
2019-05-29T01:36:03.600Z,8.86
2019-05-29T01:37:03.591Z,8.75
2019-05-29T01:38:03.590Z,8.77
2019-05-29T01:39:03.586Z,8.75
2019-05-29T01:40:18.693Z,8.71
2019-05-29T01:41:04.546Z,8.74
2019-05-29T01:42:03.534Z,8.71
2019-05-29T01:43:03.540Z,8.77
2019-05-29T01:44:03.551Z,8.72
2019-05-29T01:45:08.285Z,8.74
2019-05-29T01:46:04.490Z,8.71
2019-05-29T01:47:03.480Z,8.71
2019-05-29T01:48:03.470Z,8.74
2019-05-29T01:49:03.476Z,8.68
2019-05-29T01:50:03.471Z,8.80
2019-05-29T01:51:03.459Z,8.70
2019-05-29T01:52:03.432Z,8.68
2019-05-29T01:53:03.419Z,8.74
2019-05-29T01:54:03.436Z,8.71
2019-05-29T01:55:03.399Z,8.77
2019-05-29T01:56:03.399Z,8.71
2019-05-29T01:57:03.395Z,8.71
2019-05-29T01:58:03.402Z,8.74
2019-05-29T01:59:03.364Z,8.74
2019-05-29T02:00:03.380Z,8.70
2019-05-29T02:01:03.334Z,8.78
2019-05-29T02:02:03.322Z,8.72
2019-05-29T02:03:03.334Z,8.75
2019-05-29T02:04:03.362Z,8.72
2019-05-29T02:05:03.291Z,8.75
2019-05-29T02:06:03.275Z,8.85
2019-05-29T02:07:03.264Z,8.85
2019-05-29T02:08:03.266Z,8.74
2019-05-29T02:09:03.283Z,8.75
2019-05-29T02:10:03.246Z,8.75
2019-05-29T02:11:03.240Z,8.71
2019-05-29T02:12:03.213Z,8.77
2019-05-29T02:13:03.257Z,8.68
2019-05-29T02:14:03.189Z,8.75
2019-05-29T02:15:03.194Z,8.77
2019-05-29T02:16:03.167Z,8.75
2019-05-29T02:17:03.163Z,8.80
2019-05-29T02:18:03.159Z,8.72
2019-05-29T02:19:03.192Z,8.78
2019-05-29T02:20:03.151Z,8.80
2019-05-29T02:21:03.138Z,8.72
2019-05-29T02:22:03.115Z,8.75
2019-05-29T02:23:03.111Z,8.78
2019-05-29T02:24:03.086Z,8.78
2019-05-29T02:25:03.091Z,8.80
2019-05-29T02:26:03.087Z,8.81
2019-05-29T02:27:03.081Z,8.86
2019-05-29T02:28:03.040Z,8.86
2019-05-29T02:29:03.042Z,8.86
2019-05-29T02:30:03.030Z,8.77
2019-05-29T02:31:03.008Z,8.81
2019-05-29T02:32:03.009Z,8.75
2019-05-29T02:33:02.983Z,8.83
2019-05-29T02:34:07.242Z,8.86
2019-05-29T02:35:02.989Z,8.83
2019-05-29T02:36:02.961Z,8.88
2019-05-29T02:37:02.952Z,8.89
2019-05-29T02:38:02.951Z,8.88
2019-05-29T02:39:02.933Z,8.90
2019-05-29T02:40:02.927Z,8.93
2019-05-29T02:41:02.919Z,9.01
2019-05-29T02:42:02.906Z,9.09
2019-05-29T02:43:02.880Z,9.08
2019-05-29T02:44:02.880Z,9.01
2019-05-29T02:45:02.866Z,9.11
2019-05-29T02:46:02.858Z,9.12
2019-05-29T02:47:02.868Z,9.09
2019-05-29T02:48:02.822Z,9.11
2019-05-29T02:49:02.833Z,9.14
2019-05-29T02:50:02.798Z,9.16
2019-05-29T02:51:02.801Z,9.23
2019-05-29T02:52:02.800Z,9.16
2019-05-29T02:53:02.760Z,9.29
2019-05-29T02:54:02.753Z,9.30
2019-05-29T02:55:02.740Z,9.41
2019-05-29T02:56:02.749Z,9.32
2019-05-29T02:57:02.726Z,9.29
2019-05-29T02:58:02.734Z,9.37
2019-05-29T02:59:02.725Z,9.27
2019-05-29T03:00:02.712Z,9.41
2019-05-29T03:01:02.693Z,9.34
2019-05-29T03:02:02.678Z,9.41
2019-05-29T03:03:02.656Z,9.33
2019-05-29T03:04:02.652Z,9.40
2019-05-29T03:05:02.636Z,9.48
2019-05-29T03:06:02.668Z,9.37
2019-05-29T03:07:02.641Z,9.51
2019-05-29T03:08:02.600Z,9.41
2019-05-29T03:09:02.589Z,9.42
2019-05-29T03:10:02.580Z,9.47
2019-05-29T03:11:02.606Z,9.50
2019-05-29T03:12:02.597Z,9.50
2019-05-29T03:13:02.545Z,9.55
2019-05-29T03:14:02.533Z,9.54
2019-05-29T03:15:02.521Z,9.52
2019-05-29T03:16:10.364Z,9.59
2019-05-29T03:17:03.526Z,9.60
2019-05-29T03:18:02.491Z,9.57
2019-05-29T03:19:02.490Z,9.65
2019-05-29T03:20:02.475Z,9.67
2019-05-29T03:21:02.459Z,9.63
2019-05-29T03:22:02.479Z,9.78
2019-05-29T03:23:02.447Z,9.80
2019-05-29T03:24:02.430Z,9.77
2019-05-29T03:25:02.418Z,9.80
2019-05-29T03:26:02.416Z,9.83
2019-05-29T03:27:02.421Z,9.83
2019-05-29T03:28:02.401Z,9.87
2019-05-29T03:29:02.374Z,9.88
2019-05-29T03:30:02.379Z,9.91
2019-05-29T03:31:02.441Z,9.94
2019-05-29T03:32:02.359Z,9.96
2019-05-29T03:33:02.349Z,9.96
2019-05-29T03:34:02.329Z,9.98
2019-05-29T03:35:02.307Z,10.02
2019-05-29T03:36:02.316Z,10.02
2019-05-29T03:37:02.294Z,10.03
2019-05-29T03:38:02.306Z,10.05
2019-05-29T03:39:02.262Z,10.10
2019-05-29T03:40:02.259Z,10.12
2019-05-29T03:41:02.258Z,10.14
2019-05-29T03:42:02.230Z,10.16
2019-05-29T03:43:02.241Z,10.17
2019-05-29T03:44:02.229Z,10.27
2019-05-29T03:45:02.215Z,10.18
2019-05-29T03:46:02.201Z,10.21
2019-05-29T03:47:02.214Z,10.27
2019-05-29T03:48:02.179Z,10.26
2019-05-29T03:49:02.168Z,10.28
2019-05-29T03:50:02.156Z,10.30
2019-05-29T03:51:02.134Z,10.42
2019-05-29T03:52:02.152Z,10.43
2019-05-29T03:53:02.127Z,10.41
2019-05-29T03:54:02.108Z,10.42
2019-05-29T03:55:02.123Z,10.43
2019-05-29T03:56:02.083Z,10.45
2019-05-29T03:57:02.074Z,10.54
2019-05-29T03:58:02.094Z,10.45
2019-05-29T03:59:02.057Z,10.58
2019-05-29T04:00:02.041Z,10.52
2019-05-29T04:01:02.039Z,10.49
2019-05-29T04:02:02.017Z,10.58
2019-05-29T04:03:02.035Z,10.54
2019-05-29T04:04:02.025Z,10.65
2019-05-29T04:05:02.122Z,10.67
2019-05-29T04:06:01.987Z,10.64
2019-05-29T04:07:01.962Z,10.70
2019-05-29T04:08:01.960Z,10.70
2019-05-29T04:09:01.955Z,10.73
2019-05-29T04:10:01.984Z,10.70
2019-05-29T04:11:01.932Z,10.78
2019-05-29T04:12:01.923Z,10.83
2019-05-29T04:13:01.900Z,10.87
2019-05-29T04:14:01.914Z,10.94
2019-05-29T04:15:01.892Z,10.86
2019-05-29T04:16:01.876Z,10.85
2019-05-29T04:17:01.878Z,10.87
2019-05-29T04:18:01.842Z,10.85
2019-05-29T04:19:01.867Z,10.95
2019-05-29T04:20:01.818Z,10.98
2019-05-29T04:21:01.816Z,10.95
2019-05-29T04:22:01.817Z,10.98
2019-05-29T04:23:01.791Z,10.91
2019-05-29T04:24:01.816Z,10.98
2019-05-29T04:25:01.770Z,11.03
2019-05-29T04:26:01.772Z,11.08
2019-05-29T04:27:01.739Z,11.04
2019-05-29T04:28:01.733Z,10.98
2019-05-29T04:29:01.737Z,11.00
2019-05-29T04:30:01.734Z,10.97
2019-05-29T04:31:01.710Z,11.11
2019-05-29T04:32:01.696Z,11.03
2019-05-29T04:33:01.679Z,11.12
2019-05-29T04:34:01.673Z,11.18
2019-05-29T04:35:01.681Z,11.13
2019-05-29T04:36:01.675Z,11.12
2019-05-29T04:37:01.635Z,11.15
2019-05-29T04:38:01.637Z,11.18
2019-05-29T04:39:01.619Z,11.22
2019-05-29T04:40:01.650Z,11.18
2019-05-29T04:41:01.600Z,11.20
2019-05-29T04:42:01.592Z,11.31
2019-05-29T04:43:01.581Z,11.27
2019-05-29T04:44:01.553Z,11.30
2019-05-29T04:45:01.589Z,11.41
2019-05-29T04:46:01.537Z,11.41
2019-05-29T04:47:11.014Z,11.43
2019-05-29T04:48:02.533Z,11.48
2019-05-29T04:49:01.507Z,11.49
2019-05-29T04:50:01.516Z,11.43
2019-05-29T04:51:01.474Z,11.54
2019-05-29T04:52:01.468Z,11.54
2019-05-29T04:53:01.471Z,11.59
2019-05-29T04:54:01.451Z,11.56
2019-05-29T04:55:01.465Z,11.62
2019-05-29T04:56:01.427Z,11.56
2019-05-29T04:57:01.410Z,11.67
2019-05-29T04:58:01.397Z,11.64
2019-05-29T04:59:01.390Z,11.59
2019-05-29T05:00:01.413Z,11.69
2019-05-29T05:01:01.364Z,11.67
2019-05-29T05:02:01.390Z,11.62
2019-05-29T05:03:01.358Z,11.61
2019-05-29T05:04:01.350Z,11.69
2019-05-29T05:05:01.338Z,11.73
2019-05-29T05:06:01.344Z,11.76
2019-05-29T05:07:01.309Z,11.80
2019-05-29T05:08:01.301Z,11.80
2019-05-29T05:09:01.279Z,11.77
2019-05-29T05:10:01.284Z,11.88
2019-05-29T05:11:01.283Z,11.89
2019-05-29T05:12:01.267Z,11.88
2019-05-29T05:13:01.239Z,11.89
2019-05-29T05:14:01.857Z,11.99
2019-05-29T05:15:01.215Z,12.00
2019-05-29T05:16:01.217Z,11.99
2019-05-29T05:17:01.212Z,12.08
2019-05-29T05:18:01.177Z,12.26
2019-05-29T05:19:01.170Z,12.25
2019-05-29T05:20:01.161Z,12.41
2019-05-29T05:21:01.176Z,12.44
2019-05-29T05:22:01.162Z,12.53
2019-05-29T05:23:01.127Z,12.62
2019-05-29T05:24:01.127Z,12.77
2019-05-29T05:25:01.200Z,12.95
2019-05-29T05:26:01.109Z,13.06
2019-05-29T05:27:01.083Z,13.21
2019-05-29T05:28:01.079Z,13.40
2019-05-29T05:29:01.075Z,13.53
2019-05-29T05:30:01.049Z,13.72
2019-05-29T05:31:01.045Z,13.82
2019-05-29T05:32:01.043Z,13.93
2019-05-29T05:33:01.022Z,14.04
2019-05-29T05:34:01.023Z,14.22
2019-05-29T05:35:00.995Z,14.37
2019-05-29T05:36:01.013Z,14.51
2019-05-29T05:37:00.979Z,14.53
2019-05-29T05:38:01.001Z,14.70
2019-05-29T05:39:01.005Z,14.86
2019-05-29T05:40:00.937Z,14.99
2019-05-29T05:41:00.945Z,15.10
2019-05-29T05:42:00.934Z,15.15
2019-05-29T05:43:00.917Z,15.36
2019-05-29T05:44:00.897Z,15.40
2019-05-29T05:45:00.884Z,15.47
2019-05-29T05:46:00.898Z,15.59
2019-05-29T05:47:00.858Z,15.65
2019-05-29T05:48:00.857Z,15.68
2019-05-29T05:49:00.838Z,15.78
2019-05-29T05:50:00.839Z,15.84
2019-05-29T05:51:00.822Z,16.22
2019-05-29T05:52:00.831Z,16.42
2019-05-29T05:53:00.801Z,16.55
2019-05-29T05:54:00.783Z,16.61
2019-05-29T05:55:00.782Z,16.69
2019-05-29T05:56:00.760Z,16.76
2019-05-29T05:57:00.769Z,16.87
2019-05-29T05:58:00.738Z,17.04
2019-05-29T05:59:00.736Z,17.17
2019-05-29T06:00:00.727Z,17.10
2019-05-29T06:01:00.706Z,17.30
2019-05-29T06:02:00.714Z,17.37
2019-05-29T06:03:00.692Z,17.45
2019-05-29T06:04:00.678Z,17.38
2019-05-29T06:05:00.669Z,17.45
2019-05-29T06:06:00.656Z,17.41
2019-05-29T06:07:00.658Z,17.52
2019-05-29T06:08:00.637Z,17.46
2019-05-29T06:09:00.623Z,17.66
2019-05-29T06:10:00.634Z,17.78
2019-05-29T06:11:00.600Z,17.65
2019-05-29T06:12:00.602Z,17.63
2019-05-29T06:13:00.585Z,17.50
2019-05-29T06:14:00.576Z,17.39
2019-05-29T06:15:00.574Z,17.27
2019-05-29T06:16:00.552Z,17.06
2019-05-29T06:17:00.547Z,17.20
2019-05-29T06:18:19.431Z,17.13
2019-05-29T06:19:01.513Z,17.13
2019-05-29T06:20:00.502Z,17.13
2019-05-29T06:21:00.531Z,17.01
2019-05-29T06:22:00.506Z,16.90
2019-05-29T06:23:00.474Z,16.88
2019-05-29T06:24:00.466Z,16.82
2019-05-29T06:25:00.449Z,16.80
2019-05-29T06:26:00.442Z,16.84
2019-05-29T06:27:00.453Z,16.84
2019-05-29T06:28:00.427Z,16.80
2019-05-29T06:29:00.407Z,16.87
2019-05-29T06:30:00.408Z,16.97
2019-05-29T06:31:00.405Z,17.04
2019-05-29T06:32:00.379Z,17.34
2019-05-29T06:33:00.390Z,17.65
2019-05-29T06:34:00.363Z,17.86
2019-05-29T06:35:00.348Z,18.11
2019-05-29T06:36:00.346Z,18.33
2019-05-29T06:37:00.323Z,18.52
2019-05-29T06:38:00.330Z,18.52
2019-05-29T06:39:00.304Z,18.83
2019-05-29T06:40:00.296Z,18.93
2019-05-29T06:41:00.278Z,18.86
2019-05-29T06:42:00.277Z,18.86
2019-05-29T06:43:00.276Z,18.85
2019-05-29T06:44:00.242Z,19.09
2019-05-29T06:45:00.379Z,19.30
2019-05-29T06:46:00.220Z,19.35
2019-05-29T06:47:00.210Z,19.49
2019-05-29T06:48:00.218Z,19.68
2019-05-29T06:49:01.147Z,19.74
2019-05-29T06:50:00.180Z,19.93
2019-05-29T06:51:00.181Z,20.00
2019-05-29T06:52:00.157Z,20.39
2019-05-29T06:53:00.157Z,20.63
2019-05-29T06:54:00.139Z,20.55
2019-05-29T06:55:00.160Z,20.74
2019-05-29T06:56:01.481Z,20.75
2019-05-29T06:57:00.106Z,20.83
2019-05-29T06:58:00.107Z,20.79
2019-05-29T06:59:00.081Z,20.88
2019-05-29T07:00:00.069Z,20.75
2019-05-29T07:01:00.062Z,20.83
2019-05-29T07:02:00.047Z,20.68
2019-05-29T07:03:00.086Z,20.75
2019-05-29T07:04:11.494Z,20.77
2019-05-29T07:05:01.015Z,20.83
2019-05-29T07:06:00.007Z,21.16
2019-05-29T07:06:59.992Z,21.25
2019-05-29T07:08:16.848Z,21.38
2019-05-29T07:09:00.971Z,21.59
2019-05-29T07:09:59.959Z,21.56
2019-05-29T07:10:59.949Z,21.53
2019-05-29T07:11:59.939Z,21.43
2019-05-29T07:12:59.930Z,21.59
2019-05-29T07:13:59.932Z,21.81
2019-05-29T07:14:59.906Z,22.00
2019-05-29T07:15:59.899Z,22.07
2019-05-29T07:16:59.885Z,22.22
2019-05-29T07:17:59.874Z,22.43
2019-05-29T07:20:04.128Z,22.55
2019-05-29T07:20:59.846Z,22.66
2019-05-29T07:21:59.840Z,22.67
2019-05-29T07:22:59.823Z,22.70
2019-05-29T07:23:59.840Z,22.66
2019-05-29T07:24:59.810Z,22.56
2019-05-29T07:25:59.790Z,22.67
2019-05-29T07:26:59.789Z,22.85
2019-05-29T07:27:59.770Z,23.01
2019-05-29T07:29:08.102Z,23.10
2019-05-29T07:30:00.776Z,23.28
2019-05-29T07:31:03.152Z,23.37
2019-05-29T07:31:59.733Z,23.55
2019-05-29T07:32:59.715Z,23.88
2019-05-29T07:33:59.714Z,24.18
2019-05-29T07:35:03.577Z,24.22
2019-05-29T07:35:59.682Z,24.11
2019-05-29T07:36:59.674Z,24.16
2019-05-29T07:37:59.662Z,24.15
2019-05-29T07:39:03.668Z,24.03
2019-05-29T07:39:59.652Z,23.74
2019-05-29T07:40:59.657Z,23.48
2019-05-29T07:41:59.624Z,23.17
2019-05-29T07:42:59.614Z,22.66
2019-05-29T07:43:59.597Z,22.36
2019-05-29T07:44:59.614Z,22.23
2019-05-29T07:45:59.574Z,22.06
2019-05-29T07:46:59.571Z,22.00
2019-05-29T07:47:59.570Z,21.88
2019-05-29T07:48:59.562Z,21.45
2019-05-29T07:49:59.556Z,21.32
2019-05-29T07:51:06.927Z,21.16
2019-05-29T07:52:00.515Z,20.85
2019-05-29T07:52:59.519Z,20.61
2019-05-29T07:53:59.485Z,20.42
2019-05-29T07:54:59.482Z,20.36
2019-05-29T07:55:59.481Z,20.33
2019-05-29T07:56:59.454Z,20.14
2019-05-29T07:57:59.444Z,19.93
2019-05-29T07:59:03.340Z,19.67
2019-05-29T07:59:59.427Z,19.52
2019-05-29T08:01:11.674Z,19.68
2019-05-29T08:02:00.410Z,19.63
2019-05-29T08:02:59.391Z,19.45
2019-05-29T08:03:59.383Z,19.42
2019-05-29T08:04:59.373Z,19.19
2019-05-29T08:05:59.384Z,19.01
2019-05-29T08:06:59.346Z,18.85
2019-05-29T08:07:59.341Z,18.89
2019-05-29T08:08:59.330Z,19.00
2019-05-29T08:09:59.317Z,19.31
2019-05-29T08:10:59.318Z,19.41
2019-05-29T08:11:59.319Z,19.67
2019-05-29T08:12:59.289Z,19.82
2019-05-29T08:13:59.272Z,20.07
2019-05-29T08:14:59.262Z,20.33
2019-05-29T08:16:02.992Z,20.39
2019-05-29T08:16:59.258Z,20.49
2019-05-29T08:17:59.227Z,20.60
2019-05-29T08:18:59.216Z,20.61
2019-05-29T08:20:06.592Z,20.71
2019-05-29T08:21:00.197Z,20.70
2019-05-29T08:21:59.200Z,20.82
2019-05-29T08:22:59.174Z,20.53
2019-05-29T08:23:59.160Z,20.46
2019-05-29T08:24:59.172Z,20.30
2019-05-29T08:25:59.141Z,20.29
2019-05-29T08:26:59.146Z,20.37
2019-05-29T08:27:59.112Z,20.22
2019-05-29T08:28:59.103Z,20.29
2019-05-29T08:29:59.097Z,20.12
2019-05-29T08:30:59.083Z,20.08
2019-05-29T08:31:59.097Z,19.96
2019-05-29T08:32:59.062Z,19.93
2019-05-29T08:33:59.072Z,19.86
2019-05-29T08:34:59.037Z,19.79
2019-05-29T08:36:00.370Z,19.74
2019-05-29T08:37:06.554Z,19.79
2019-05-29T08:38:00.023Z,19.87
2019-05-29T08:38:59.000Z,19.97
2019-05-29T08:39:58.983Z,20.23
2019-05-29T08:40:58.981Z,20.27
2019-05-29T08:42:21.482Z,20.23
2019-05-29T08:42:59.967Z,20.04
2019-05-29T08:43:58.946Z,20.08
2019-05-29T08:44:58.936Z,20.08
2019-05-29T08:45:58.927Z,19.96
2019-05-29T08:47:09.505Z,20.18
2019-05-29T08:47:59.932Z,20.08
2019-05-29T08:48:58.885Z,20.05
2019-05-29T08:50:16.827Z,20.05
2019-05-29T08:50:59.862Z,20.11
2019-05-29T08:52:11.003Z,20.07
2019-05-29T08:53:02.533Z,19.93
2019-05-29T08:53:58.846Z,19.84
2019-05-29T08:54:58.824Z,19.62
2019-05-29T08:55:58.820Z,19.32
2019-05-29T08:56:58.806Z,19.17
2019-05-29T08:57:58.824Z,19.05
2019-05-29T08:58:58.789Z,19.01
2019-05-29T08:59:58.780Z,18.93
2019-05-29T09:00:58.773Z,19.07
2019-05-29T09:01:58.755Z,19.12
2019-05-29T09:02:58.736Z,19.24
2019-05-29T09:03:58.741Z,19.27
2019-05-29T09:04:58.717Z,19.26
2019-05-29T09:06:08.631Z,19.38
2019-05-29T09:06:59.687Z,19.37
2019-05-29T09:07:58.681Z,19.19
2019-05-29T09:08:58.681Z,19.31
2019-05-29T09:09:58.663Z,19.45
2019-05-29T09:10:58.658Z,19.59
2019-05-29T09:11:58.646Z,19.62
2019-05-29T09:13:04.898Z,19.42
2019-05-29T09:13:59.636Z,19.23
2019-05-29T09:14:58.614Z,19.22
2019-05-29T09:15:58.595Z,19.22
2019-05-29T09:16:58.640Z,19.19
2019-05-29T09:17:58.576Z,19.41
2019-05-29T09:18:58.596Z,19.70
2019-05-29T09:19:58.561Z,19.87
2019-05-29T09:21:03.292Z,19.94
2019-05-29T09:21:59.535Z,20.07
2019-05-29T09:22:58.529Z,20.12
2019-05-29T09:23:59.155Z,20.18
2019-05-29T09:24:58.568Z,20.32
2019-05-29T09:26:13.604Z,20.50
2019-05-29T09:26:59.478Z,20.56
2019-05-29T09:27:58.466Z,20.64
2019-05-29T09:28:58.474Z,20.74
2019-05-29T09:29:58.469Z,20.86
2019-05-29T09:30:58.444Z,20.79
2019-05-29T09:31:58.434Z,20.79
2019-05-29T09:32:58.412Z,20.70
2019-05-29T09:33:58.399Z,20.63
2019-05-29T09:34:58.401Z,20.55
2019-05-29T09:35:58.378Z,20.44
2019-05-29T09:36:58.392Z,20.39
2019-05-29T09:37:58.355Z,20.22
2019-05-29T09:38:58.410Z,20.30
2019-05-29T09:39:58.352Z,20.18
2019-05-29T09:40:58.326Z,20.17
2019-05-29T09:41:58.334Z,19.97
2019-05-29T09:42:58.305Z,20.02
2019-05-29T09:44:00.236Z,20.07
2019-05-29T09:44:58.295Z,20.02
2019-05-29T09:46:02.053Z,20.12
2019-05-29T09:46:58.260Z,20.18
2019-05-29T09:47:58.263Z,20.23
2019-05-29T09:49:01.296Z,20.27
2019-05-29T09:49:58.242Z,20.32
2019-05-29T09:50:58.216Z,20.32
2019-05-29T09:51:58.204Z,20.34
2019-05-29T09:52:59.007Z,20.39
2019-05-29T09:53:59.452Z,20.39
2019-05-29T09:54:58.350Z,20.18
2019-05-29T09:55:59.075Z,20.09
2019-05-29T09:56:59.456Z,19.99
2019-05-29T09:57:58.687Z,19.96
2019-05-29T09:58:59.781Z,19.99
2019-05-29T09:59:59.818Z,19.82
2019-05-29T10:01:18.449Z,19.67
2019-05-29T10:02:00.300Z,19.64
2019-05-29T10:02:59.451Z,19.64
2019-05-29T10:04:00.035Z,19.71
2019-05-29T10:05:00.502Z,19.47
2019-05-29T10:05:59.371Z,19.41
2019-05-29T10:06:59.435Z,19.62
2019-05-29T10:07:58.528Z,19.59
2019-05-29T10:08:58.200Z,19.89
2019-05-29T10:09:59.280Z,20.02
2019-05-29T10:11:05.921Z,20.42
2019-05-29T10:12:03.275Z,20.50
2019-05-29T10:12:59.978Z,20.58
2019-05-29T10:13:58.829Z,20.41
2019-05-29T10:14:58.926Z,20.55
2019-05-29T10:15:59.119Z,20.37
2019-05-29T10:16:59.330Z,20.37
2019-05-29T10:17:58.499Z,20.39
2019-05-29T10:18:59.787Z,20.39
2019-05-29T10:19:58.975Z,20.29
2019-05-29T10:20:59.546Z,20.64
2019-05-29T10:22:00.061Z,21.20
2019-05-29T10:22:58.929Z,21.60
2019-05-29T10:23:59.420Z,21.73
2019-05-29T10:24:58.711Z,21.73
2019-05-29T10:25:58.821Z,21.67
2019-05-29T10:26:59.050Z,21.51
2019-05-29T10:27:57.817Z,21.71
2019-05-29T10:29:58.789Z,22.61
2019-05-29T10:31:02.905Z,23.15
2019-05-29T10:31:58.776Z,23.41
2019-05-29T10:32:57.759Z,23.41
2019-05-29T10:33:57.754Z,23.69
2019-05-29T10:34:38.800Z,22.30
2019-05-29T10:34:57.734Z,23.88
2019-05-29T10:35:57.740Z,24.06
2019-05-29T10:36:57.715Z,24.34
2019-05-29T10:37:57.704Z,24.34
2019-05-29T10:38:57.692Z,24.36
2019-05-29T10:39:57.706Z,24.53
2019-05-29T10:41:06.264Z,24.65
2019-05-29T10:41:58.664Z,25.03
2019-05-29T10:42:57.655Z,25.19
2019-05-29T10:43:57.640Z,25.28
2019-05-29T10:44:57.631Z,25.30
2019-05-29T10:45:57.680Z,25.30
2019-05-29T10:46:57.609Z,25.21
2019-05-29T10:47:57.601Z,24.81
2019-05-29T10:48:57.588Z,24.76
2019-05-29T10:49:57.582Z,24.68
2019-05-29T10:50:57.576Z,24.60
2019-05-29T10:52:11.955Z,24.70
2019-05-29T10:52:58.545Z,24.91
2019-05-29T10:53:59.118Z,25.14
2019-05-29T10:54:57.531Z,25.22
2019-05-29T10:55:57.525Z,25.55
2019-05-29T10:56:57.538Z,26.10
2019-05-29T10:57:57.487Z,26.58
2019-05-29T10:58:59.784Z,26.27
2019-05-29T10:59:57.470Z,25.90
2019-05-29T11:00:57.463Z,25.82
2019-05-29T11:01:57.456Z,25.68
2019-05-29T11:02:57.758Z,25.86
2019-05-29T11:03:57.432Z,26.33
2019-05-29T11:04:59.541Z,26.83
2019-05-29T11:05:57.409Z,27.69
2019-05-29T11:06:57.433Z,28.38
2019-05-29T11:07:57.406Z,29.28
2019-05-29T11:08:57.372Z,29.84
2019-05-29T11:09:57.364Z,30.07
2019-05-29T11:10:57.366Z,30.26
2019-05-29T11:11:57.812Z,30.85
2019-05-29T11:12:57.326Z,31.51
2019-05-29T11:13:57.352Z,32.31
2019-05-29T11:14:57.308Z,32.09
2019-05-29T11:15:57.296Z,31.79
2019-05-29T11:16:57.661Z,31.24
2019-05-29T11:17:57.442Z,30.46
2019-05-29T11:18:57.695Z,29.58
2019-05-29T11:19:58.261Z,29.03
2019-05-29T11:20:57.603Z,28.27
2019-05-29T11:22:04.577Z,28.19
2019-05-29T11:22:58.239Z,28.19
2019-05-29T11:23:58.258Z,28.19
2019-05-29T11:25:00.190Z,27.93
2019-05-29T11:25:58.265Z,28.06
2019-05-29T11:26:57.182Z,28.87
2019-05-29T11:27:58.554Z,29.54
2019-05-29T11:28:58.611Z,29.73
2019-05-29T11:29:57.215Z,30.36
2019-05-29T11:30:57.284Z,31.12
2019-05-29T11:31:57.135Z,30.92
2019-05-29T11:32:59.203Z,30.73
2019-05-29T11:33:57.289Z,31.11
2019-05-29T11:34:57.518Z,31.26
2019-05-29T11:36:09.484Z,31.19
2019-05-29T11:36:58.360Z,30.52
2019-05-29T11:37:57.065Z,29.77
2019-05-29T11:39:01.386Z,29.37
2019-05-29T11:39:59.015Z,28.96
2019-05-29T11:41:20.234Z,28.27
2019-05-29T11:41:58.936Z,27.83
2019-05-29T11:42:57.032Z,28.43
2019-05-29T11:43:57.031Z,28.79
2019-05-29T11:44:57.012Z,29.59
2019-05-29T11:45:57.390Z,30.28
2019-05-29T11:46:58.185Z,30.74
2019-05-29T11:47:59.154Z,31.11
2019-05-29T11:48:57.378Z,31.34
2019-05-29T11:50:07.369Z,31.81
2019-05-29T11:50:58.262Z,32.27
2019-05-29T11:52:18.789Z,33.10
2019-05-29T11:52:58.537Z,33.47
2019-05-29T11:53:57.522Z,33.81
2019-05-29T11:54:59.971Z,34.38
2019-05-29T11:55:58.030Z,34.97
2019-05-29T11:56:57.347Z,35.21
2019-05-29T11:57:57.955Z,35.09
2019-05-29T11:58:57.124Z,35.36
2019-05-29T12:00:00.195Z,35.79
2019-05-29T12:00:57.829Z,36.02
2019-05-29T12:01:57.303Z,36.17
2019-05-29T12:02:57.757Z,36.23
2019-05-29T12:04:20.557Z,36.35
2019-05-29T12:05:01.152Z,36.49
2019-05-29T12:05:57.819Z,36.71
2019-05-29T12:06:57.550Z,36.91
2019-05-29T12:07:57.550Z,36.93
2019-05-29T12:08:57.971Z,37.22
2019-05-29T12:09:57.500Z,37.76
2019-05-29T12:10:57.364Z,37.76
2019-05-29T12:11:57.970Z,37.49
2019-05-29T12:12:57.582Z,37.25
2019-05-29T12:13:58.045Z,37.17
2019-05-29T12:15:06.015Z,37.34
2019-05-29T12:15:57.787Z,37.94
2019-05-29T12:16:58.021Z,37.60
2019-05-29T12:18:18.236Z,37.67
2019-05-29T12:18:57.862Z,37.82
2019-05-29T12:19:59.381Z,37.96
2019-05-29T12:20:58.280Z,37.85
2019-05-29T12:21:56.625Z,38.25
2019-05-29T12:23:19.809Z,38.26
2019-05-29T12:23:58.181Z,38.84
2019-05-29T12:24:56.641Z,38.63
2019-05-29T12:26:16.666Z,38.41
2019-05-29T12:26:58.553Z,38.44
2019-05-29T12:27:57.366Z,38.16
2019-05-29T12:29:03.870Z,38.30
2019-05-29T12:29:58.732Z,38.64
2019-05-29T12:30:56.980Z,38.69
2019-05-29T12:31:57.083Z,39.04
2019-05-29T12:32:56.864Z,39.24
2019-05-29T12:34:00.170Z,39.49
2019-05-29T12:34:59.374Z,39.33
2019-05-29T12:35:56.992Z,39.27
2019-05-29T12:36:57.346Z,39.62
2019-05-29T12:37:57.342Z,39.94
2019-05-29T12:38:57.831Z,39.17
2019-05-29T12:39:57.477Z,39.27
2019-05-29T12:40:57.622Z,39.30
2019-05-29T12:41:57.572Z,39.40
2019-05-29T12:42:57.525Z,39.42
2019-05-29T12:43:57.515Z,38.74
2019-05-29T12:44:57.542Z,37.88
2019-05-29T12:45:57.706Z,37.57
2019-05-29T12:46:57.692Z,37.08
2019-05-29T12:47:58.057Z,37.50
2019-05-29T12:48:57.539Z,37.38
2019-05-29T12:49:57.542Z,36.66
2019-05-29T12:50:58.072Z,36.29
2019-05-29T12:51:57.526Z,36.26
2019-05-29T12:52:57.570Z,36.60
2019-05-29T12:53:56.317Z,36.85
2019-05-29T12:54:56.310Z,37.26
2019-05-29T12:55:56.306Z,37.94
2019-05-29T12:56:56.286Z,38.44
2019-05-29T12:57:56.277Z,38.85
2019-05-29T12:58:56.264Z,38.71
2019-05-29T12:59:56.260Z,38.42